createdAt,value
2023-12-02T00:02:12.366Z,-0.60
2023-12-02T00:04:39.302Z,-0.60
2023-12-02T00:07:06.419Z,-0.70
2023-12-02T00:09:33.473Z,-0.60
2023-12-02T00:12:00.478Z,-0.70
2023-12-02T00:14:27.428Z,-0.90
2023-12-02T00:16:54.335Z,-0.80
2023-12-02T00:19:21.622Z,-0.70
2023-12-02T00:21:48.785Z,-0.60
2023-12-02T00:24:15.754Z,-0.70
2023-12-02T00:26:42.778Z,-0.70
2023-12-02T00:29:10.276Z,-0.80
2023-12-02T00:31:37.239Z,-0.80
2023-12-02T00:34:04.302Z,-0.80
2023-12-02T00:36:33.569Z,-0.80
2023-12-02T00:39:00.610Z,-0.90
2023-12-02T00:41:27.536Z,-0.90
2023-12-02T00:43:54.503Z,-0.90
2023-12-02T00:46:21.973Z,-0.90
2023-12-02T00:48:50.105Z,-0.90
2023-12-02T00:51:17.134Z,-0.90
2023-12-02T00:53:45.152Z,-0.90
2023-12-02T00:56:12.238Z,-1.00
2023-12-02T00:58:41.696Z,-1.10
2023-12-02T01:01:10.395Z,-1.20
2023-12-02T01:03:37.482Z,-1.20
2023-12-02T01:06:04.739Z,-1.20
2023-12-02T01:08:31.677Z,-1.20
2023-12-02T01:10:58.606Z,-1.10
2023-12-02T01:13:25.603Z,-1.20
2023-12-02T01:15:52.548Z,-1.20
2023-12-02T01:18:19.657Z,-1.20
2023-12-02T01:20:46.687Z,-1.20
2023-12-02T01:23:13.632Z,-1.20
2023-12-02T01:25:40.586Z,-1.20
2023-12-02T01:28:07.778Z,-1.20
2023-12-02T01:30:34.796Z,-1.20
2023-12-02T01:33:01.961Z,-1.10
2023-12-02T01:35:28.977Z,-1.10
2023-12-02T01:37:55.883Z,-1.10
2023-12-02T01:40:22.986Z,-1.10
2023-12-02T01:42:49.934Z,-1.00
2023-12-02T01:45:16.963Z,-1.10
2023-12-02T01:47:44.433Z,-1.10
2023-12-02T01:50:12.626Z,-1.20
2023-12-02T01:52:39.613Z,-1.30
2023-12-02T01:55:06.898Z,-1.30
2023-12-02T01:57:34.159Z,-1.30
2023-12-02T02:00:01.138Z,-1.30
2023-12-02T02:02:28.237Z,-1.10
2023-12-02T02:04:55.518Z,-1.10
2023-12-02T02:07:22.970Z,-1.00
2023-12-02T02:09:50.341Z,-1.00
2023-12-02T02:12:18.163Z,-1.10
2023-12-02T02:14:45.228Z,-1.10
2023-12-02T02:17:12.347Z,-1.20
2023-12-02T02:19:39.382Z,-1.20
2023-12-02T02:22:06.380Z,-1.20
2023-12-02T02:24:33.337Z,-1.30
2023-12-02T02:27:00.930Z,-1.30
2023-12-02T02:29:27.916Z,-1.20
2023-12-02T02:31:54.891Z,-1.30
2023-12-02T02:34:21.922Z,-1.30
2023-12-02T02:36:48.922Z,-1.30
2023-12-02T02:39:15.940Z,-1.30
2023-12-02T02:41:42.954Z,-1.30
2023-12-02T02:44:09.896Z,-1.30
2023-12-02T02:46:36.893Z,-1.20
2023-12-02T02:49:04.208Z,-1.30
2023-12-02T02:51:31.269Z,-1.30
2023-12-02T02:53:58.294Z,-1.30
2023-12-02T02:56:25.243Z,-1.40
2023-12-02T02:58:52.539Z,-1.40
2023-12-02T03:01:19.547Z,-1.40
2023-12-02T03:03:46.610Z,-1.40
2023-12-02T03:06:13.755Z,-1.40
2023-12-02T03:08:40.825Z,-1.50
2023-12-02T03:11:08.210Z,-1.50
2023-12-02T03:13:35.170Z,-1.50
2023-12-02T03:16:02.087Z,-1.50
2023-12-02T03:18:29.243Z,-1.40
2023-12-02T03:20:56.276Z,-1.50
2023-12-02T03:23:23.213Z,-1.40
2023-12-02T03:25:50.198Z,-1.50
2023-12-02T03:28:17.228Z,-1.40
2023-12-02T03:30:44.184Z,-1.40
2023-12-02T03:33:11.556Z,-1.40
2023-12-02T03:35:38.542Z,-1.40
2023-12-02T03:38:05.512Z,-1.40
2023-12-02T03:40:32.591Z,-1.40
2023-12-02T03:42:59.990Z,-1.30
2023-12-02T03:45:27.307Z,-1.30
2023-12-02T03:47:54.484Z,-1.30
2023-12-02T03:50:21.451Z,-1.30
2023-12-02T03:52:48.382Z,-1.30
2023-12-02T03:55:15.419Z,-1.30
2023-12-02T03:57:42.341Z,-1.40
2023-12-02T04:00:13.041Z,-1.40
2023-12-02T04:02:40.958Z,-1.40
2023-12-02T04:05:09.633Z,-1.50
2023-12-02T04:07:37.874Z,-1.40
2023-12-02T04:10:05.542Z,-1.40
2023-12-02T04:12:33.159Z,-1.40
2023-12-02T04:15:01.991Z,-1.40
2023-12-02T04:17:30.110Z,-1.50
2023-12-02T04:19:57.268Z,-1.40
2023-12-02T04:22:24.200Z,-1.30
2023-12-02T04:24:51.341Z,-1.40
2023-12-02T04:27:18.350Z,-1.30
2023-12-02T04:29:45.287Z,-1.40
2023-12-02T04:32:13.139Z,-1.40
2023-12-02T04:34:40.242Z,-1.40
2023-12-02T04:37:07.340Z,-1.40
2023-12-02T04:39:34.889Z,-1.40
2023-12-02T04:42:02.103Z,-1.40
2023-12-02T04:44:29.056Z,-1.40
2023-12-02T04:46:56.081Z,-1.40
2023-12-02T04:49:23.203Z,-1.50
2023-12-02T04:51:50.227Z,-1.40
2023-12-02T04:54:17.191Z,-1.40
2023-12-02T04:56:44.216Z,-1.40
2023-12-02T04:59:11.133Z,-1.40
2023-12-02T05:01:39.409Z,-1.40
2023-12-02T05:04:06.962Z,-1.50
2023-12-02T05:06:34.157Z,-1.40
2023-12-02T05:09:01.153Z,-1.40
2023-12-02T05:11:28.537Z,-1.50
2023-12-02T05:13:55.479Z,-1.50
2023-12-02T05:16:22.522Z,-1.50
2023-12-02T05:18:49.508Z,-1.40
2023-12-02T05:21:17.145Z,-1.50
2023-12-02T05:23:44.300Z,-1.50
2023-12-02T05:26:11.309Z,-1.50
2023-12-02T05:28:39.740Z,-1.50
2023-12-02T05:31:07.688Z,-1.40
2023-12-02T05:33:34.666Z,-1.40
2023-12-02T05:36:01.726Z,-1.40
2023-12-02T05:38:28.679Z,-1.40
2023-12-02T05:40:55.720Z,-1.40
2023-12-02T05:43:22.630Z,-1.40
2023-12-02T05:45:50.441Z,-1.40
2023-12-02T05:48:18.152Z,-1.40
2023-12-02T05:50:45.308Z,-1.40
2023-12-02T05:53:12.669Z,-1.40
2023-12-02T05:55:39.929Z,-1.40
2023-12-02T05:58:06.946Z,-1.40
2023-12-02T06:00:36.676Z,-1.40
2023-12-02T06:03:04.221Z,-1.40
2023-12-02T06:05:31.229Z,-1.40
2023-12-02T06:07:58.195Z,-1.40
2023-12-02T06:10:25.163Z,-1.40
2023-12-02T06:12:52.088Z,-1.40
2023-12-02T06:15:19.659Z,-1.40
2023-12-02T06:17:47.576Z,-1.40
2023-12-02T06:20:14.579Z,-1.30
2023-12-02T06:22:41.712Z,-1.30
2023-12-02T06:25:08.996Z,-1.30
2023-12-02T06:27:35.960Z,-1.30
2023-12-02T06:30:03.158Z,-1.30
2023-12-02T06:32:30.316Z,-1.30
2023-12-02T06:34:57.405Z,-1.30
2023-12-02T06:37:25.292Z,-1.30
2023-12-02T06:39:52.331Z,-1.30
2023-12-02T06:42:19.261Z,-1.30
2023-12-02T06:44:46.639Z,-1.30
2023-12-02T06:47:14.457Z,-1.30
2023-12-02T06:49:41.639Z,-1.30
2023-12-02T06:52:09.262Z,-1.30
2023-12-02T06:54:39.721Z,-1.30
2023-12-02T06:57:07.596Z,-1.30
2023-12-02T06:59:34.827Z,-1.30
2023-12-02T07:02:01.791Z,-1.30
2023-12-02T07:04:28.852Z,-1.40
2023-12-02T07:06:56.032Z,-1.30
2023-12-02T07:09:23.188Z,-1.30
2023-12-02T07:11:50.100Z,-1.30
2023-12-02T07:14:17.047Z,-1.30
2023-12-02T07:16:44.172Z,-1.30
2023-12-02T07:19:11.196Z,-1.30
2023-12-02T07:21:38.236Z,-1.30
2023-12-02T07:24:05.969Z,-1.30
2023-12-02T07:26:32.944Z,-1.40
2023-12-02T07:28:59.882Z,-1.30
2023-12-02T07:31:26.783Z,-1.30
2023-12-02T07:33:55.932Z,-1.30
2023-12-02T07:36:23.102Z,-1.30
2023-12-02T07:38:50.023Z,-1.30
2023-12-02T07:41:16.935Z,-1.30
2023-12-02T07:43:43.968Z,-1.30
2023-12-02T07:46:11.027Z,-1.30
2023-12-02T07:48:38.053Z,-1.30
2023-12-02T07:51:06.808Z,-1.30
2023-12-02T07:53:33.779Z,-1.30
2023-12-02T07:56:00.862Z,-1.30
2023-12-02T07:58:27.872Z,-1.30
2023-12-02T08:00:55.058Z,-1.30
2023-12-02T08:03:24.106Z,-1.30
2023-12-02T08:05:52.452Z,-1.30
2023-12-02T08:08:19.445Z,-1.20
2023-12-02T08:10:48.447Z,-1.20
2023-12-02T08:13:15.492Z,-1.20
2023-12-02T08:15:42.478Z,-1.20
2023-12-02T08:18:09.386Z,-1.20
2023-12-02T08:20:36.343Z,-1.20
2023-12-02T08:23:03.417Z,-1.10
2023-12-02T08:25:30.450Z,-1.10
2023-12-02T08:27:57.503Z,-1.10
2023-12-02T08:30:24.571Z,-1.10
2023-12-02T08:32:51.586Z,-1.00
2023-12-02T08:35:18.626Z,-1.10
2023-12-02T08:37:45.663Z,-1.10
2023-12-02T08:40:13.913Z,-1.00
2023-12-02T08:42:40.997Z,-1.00
2023-12-02T08:45:08.746Z,-1.00
2023-12-02T08:47:35.698Z,-1.00
2023-12-02T08:50:02.713Z,-1.00
2023-12-02T08:52:29.724Z,-1.00
2023-12-02T08:54:56.683Z,-1.00
2023-12-02T08:57:23.657Z,-1.00
2023-12-02T08:59:50.930Z,-1.00
2023-12-02T09:02:18.144Z,-1.00
2023-12-02T09:04:45.236Z,-1.00
2023-12-02T09:07:12.263Z,-0.90
2023-12-02T09:09:39.178Z,-0.90
2023-12-02T09:12:06.766Z,-0.90
2023-12-02T09:14:33.722Z,-0.90
2023-12-02T09:17:00.698Z,-0.90
2023-12-02T09:19:30.686Z,-0.90
2023-12-02T09:21:57.671Z,-0.90
2023-12-02T09:24:41.723Z,-0.90
2023-12-02T09:27:09.371Z,-0.80
2023-12-02T09:29:39.770Z,-0.80
2023-12-02T09:32:10.824Z,-0.80
2023-12-02T09:34:43.666Z,-0.70
2023-12-02T09:37:50.854Z,-0.70
2023-12-02T09:40:26.780Z,-0.70
2023-12-02T09:43:11.956Z,-0.70
2023-12-02T09:46:20.996Z,-0.70
2023-12-02T09:49:05.817Z,-0.70
2023-12-02T09:51:59.805Z,-0.70
2023-12-02T09:54:51.542Z,-0.70
2023-12-02T09:57:37.241Z,-0.70
2023-12-02T10:00:14.465Z,-0.60
2023-12-02T10:03:12.765Z,-0.60
2023-12-02T10:06:05.711Z,-0.60
2023-12-02T10:09:32.145Z,-0.50
2023-12-02T10:12:37.051Z,-0.50
2023-12-02T10:15:06.868Z,-0.40
2023-12-02T10:17:51.294Z,-0.20
2023-12-02T10:20:29.836Z,-0.20
2023-12-02T10:23:11.992Z,-0.30
2023-12-02T10:25:53.870Z,-0.20
2023-12-02T10:28:29.703Z,-0.20
2023-12-02T10:31:01.097Z,-0.30
2023-12-02T10:33:41.175Z,-0.30
2023-12-02T10:36:11.468Z,-0.30
2023-12-02T10:39:14.228Z,-0.30
2023-12-02T10:41:53.077Z,-0.40
2023-12-02T10:44:22.943Z,-0.30
2023-12-02T10:46:50.914Z,-0.30
2023-12-02T10:49:18.444Z,-0.40
2023-12-02T10:52:40.534Z,-0.40
2023-12-02T10:54:42.221Z,-0.30
2023-12-02T10:57:10.128Z,-0.30
2023-12-02T11:00:09.002Z,-0.40
2023-12-02T11:02:46.533Z,-0.30
2023-12-02T11:05:22.797Z,-0.30
2023-12-02T11:07:57.094Z,-0.30
2023-12-02T11:10:49.894Z,-0.20
2023-12-02T11:13:21.670Z,-0.10
2023-12-02T11:15:51.258Z,-0.10
2023-12-02T11:18:46.859Z,-0.20
2023-12-02T11:21:52.298Z,-0.20
2023-12-02T11:24:40.120Z,-0.20
2023-12-02T11:27:44.675Z,-0.10
2023-12-02T11:30:47.134Z,-0.20
2023-12-02T11:33:55.865Z,-0.20
2023-12-02T11:36:50.160Z,-0.20
2023-12-02T11:39:41.770Z,-0.20
2023-12-02T11:42:19.675Z,-0.20
2023-12-02T11:45:06.925Z,-0.20
2023-12-02T11:47:52.618Z,-0.10
2023-12-02T11:50:44.211Z,-0.20
2023-12-02T11:53:42.232Z,-0.20
2023-12-02T11:56:15.700Z,-0.30
2023-12-02T11:59:12.125Z,-0.30
2023-12-02T12:02:03.361Z,-0.30
2023-12-02T12:05:00.518Z,-0.30
2023-12-02T12:08:08.553Z,-0.30
2023-12-02T12:10:38.482Z,-0.30
2023-12-02T12:13:09.903Z,-0.30
2023-12-02T12:15:37.960Z,-0.20
2023-12-02T12:18:05.859Z,-0.20
2023-12-02T12:20:33.358Z,-0.20
2023-12-02T12:23:01.583Z,-0.20
2023-12-02T12:25:30.482Z,-0.20
2023-12-02T12:28:07.746Z,-0.20
2023-12-02T12:30:49.356Z,-0.20
2023-12-02T12:33:21.949Z,-0.10
2023-12-02T12:35:50.131Z,-0.10
2023-12-02T12:38:17.718Z,-0.10
2023-12-02T12:40:46.068Z,-0.10
2023-12-02T12:43:14.748Z,-0.10
2023-12-02T12:45:42.728Z,-0.20
2023-12-02T12:48:11.835Z,-0.20
2023-12-02T12:50:39.863Z,-0.20
2023-12-02T12:53:12.530Z,-0.20
2023-12-02T12:55:48.557Z,-0.10
2023-12-02T12:58:18.301Z,-0.10
2023-12-02T13:00:51.199Z,-0.10
2023-12-02T13:04:14.233Z,-0.10
2023-12-02T13:06:48.778Z,-0.20
2023-12-02T13:09:31.687Z,-0.20
2023-12-02T13:12:13.829Z,-0.20
2023-12-02T13:15:07.360Z,-0.20
2023-12-02T13:17:38.096Z,-0.10
2023-12-02T13:20:08.666Z,-0.10
2023-12-02T13:22:36.985Z,-0.10
2023-12-02T13:25:19.578Z,-0.10
2023-12-02T13:27:57.208Z,0.00
2023-12-02T13:30:25.575Z,0.00
2023-12-02T13:33:00.911Z,0.00
2023-12-02T13:35:31.701Z,0.00
2023-12-02T13:38:36.062Z,0.10
2023-12-02T13:41:39.108Z,0.10
2023-12-02T13:44:08.282Z,0.10
2023-12-02T13:46:47.736Z,0.00
2023-12-02T13:49:26.328Z,0.00
2023-12-02T13:52:24.407Z,0.00
2023-12-02T13:55:16.817Z,0.10
2023-12-02T13:58:22.017Z,0.00
2023-12-02T14:01:10.620Z,0.00
2023-12-02T14:04:26.918Z,0.00
2023-12-02T14:07:21.107Z,0.30
2023-12-02T14:09:48.171Z,1.00
2023-12-02T14:12:48.808Z,0.90
2023-12-02T14:16:09.328Z,1.00
2023-12-02T14:19:31.284Z,1.90
2023-12-02T14:22:23.848Z,3.00
2023-12-02T14:25:05.551Z,3.30
2023-12-02T14:28:05.381Z,2.70
2023-12-02T14:30:51.842Z,2.60
2023-12-02T14:33:56.073Z,2.40
2023-12-02T14:36:47.471Z,2.60
2023-12-02T14:40:02.797Z,2.60
2023-12-02T14:43:26.991Z,2.10
2023-12-02T14:45:58.495Z,1.70
2023-12-02T14:48:28.608Z,1.50
2023-12-02T14:50:58.093Z,1.30
2023-12-02T14:53:37.462Z,1.10
2023-12-02T14:56:30.588Z,0.80
2023-12-02T14:59:00.440Z,0.60
2023-12-02T15:01:41.303Z,0.50
2023-12-02T15:04:09.029Z,0.40
2023-12-02T15:06:40.980Z,0.40
2023-12-02T15:09:08.570Z,0.50
2023-12-02T15:11:37.140Z,0.40
2023-12-02T15:14:04.790Z,0.40
2023-12-02T15:16:33.222Z,0.60
2023-12-02T15:19:10.369Z,1.00
2023-12-02T15:22:18.570Z,0.90
2023-12-02T15:24:45.641Z,0.80
2023-12-02T15:27:12.628Z,0.60
2023-12-02T15:29:39.656Z,0.60
2023-12-02T15:32:07.164Z,0.50
2023-12-02T15:34:34.516Z,0.50
2023-12-02T15:37:01.650Z,0.40
2023-12-02T15:39:29.943Z,0.40
2023-12-02T15:41:57.146Z,0.40
2023-12-02T15:44:24.398Z,0.40
2023-12-02T15:46:51.321Z,0.40
2023-12-02T15:49:25.575Z,0.30
2023-12-02T15:51:54.055Z,0.30
2023-12-02T15:54:23.937Z,0.40
2023-12-02T15:56:53.480Z,0.40
2023-12-02T15:59:23.914Z,0.40
2023-12-02T16:01:52.145Z,0.40
2023-12-02T16:04:19.605Z,0.40
2023-12-02T16:06:48.560Z,0.40
2023-12-02T16:09:24.272Z,0.40
2023-12-02T16:11:53.384Z,0.30
2023-12-02T16:14:23.511Z,0.30
2023-12-02T16:16:58.489Z,0.30
2023-12-02T16:19:26.940Z,0.30
2023-12-02T16:21:56.329Z,0.30
2023-12-02T16:24:23.546Z,0.50
2023-12-02T16:26:50.745Z,0.50
2023-12-02T16:29:19.973Z,0.50
2023-12-02T16:31:47.092Z,0.50
2023-12-02T16:34:15.045Z,0.50
2023-12-02T16:36:44.021Z,0.40
2023-12-02T16:39:13.836Z,0.40
2023-12-02T16:41:43.350Z,0.80
2023-12-02T16:44:10.518Z,1.20
2023-12-02T16:46:42.880Z,1.30
2023-12-02T16:49:19.377Z,1.30
2023-12-02T16:51:47.027Z,1.20
2023-12-02T16:54:15.210Z,1.00
2023-12-02T16:56:43.049Z,0.80
2023-12-02T17:00:00.698Z,0.70
2023-12-02T17:02:40.004Z,0.60
2023-12-02T17:05:38.072Z,0.50
2023-12-02T17:08:23.335Z,0.40
2023-12-02T17:11:04.265Z,0.40
2023-12-02T17:13:36.887Z,0.40
2023-12-02T17:16:32.425Z,0.40
2023-12-02T17:19:00.369Z,0.40
2023-12-02T17:21:54.645Z,0.40
2023-12-02T17:24:33.878Z,0.50
2023-12-02T17:27:02.971Z,0.50
2023-12-02T17:29:32.357Z,0.50
2023-12-02T17:32:00.549Z,0.50
2023-12-02T17:34:28.971Z,0.50
2023-12-02T17:36:57.148Z,0.50
2023-12-02T17:39:24.849Z,0.50
2023-12-02T17:41:52.389Z,0.50
2023-12-02T17:44:20.395Z,0.50
2023-12-02T17:46:49.105Z,0.50
2023-12-02T17:49:16.891Z,0.50
2023-12-02T17:51:44.783Z,0.50
2023-12-02T17:54:11.905Z,0.50
2023-12-02T17:56:39.644Z,0.50
2023-12-02T17:59:06.843Z,0.50
2023-12-02T18:01:34.194Z,0.50
2023-12-02T18:04:01.910Z,0.50
2023-12-02T18:06:29.138Z,0.40
2023-12-02T18:08:56.194Z,0.50
2023-12-02T18:11:23.421Z,0.50
2023-12-02T18:13:50.483Z,0.50
2023-12-02T18:16:17.645Z,0.50
2023-12-02T18:18:44.839Z,0.50
2023-12-02T18:21:12.477Z,0.60
2023-12-02T18:23:39.822Z,0.50
2023-12-02T18:26:08.696Z,0.50
2023-12-02T18:28:35.701Z,0.50
2023-12-02T18:31:04.322Z,0.50
2023-12-02T18:33:31.505Z,0.40
2023-12-02T18:35:58.759Z,0.40
2023-12-02T18:38:27.112Z,0.70
2023-12-02T18:40:54.743Z,0.70
2023-12-02T18:43:21.753Z,0.60
2023-12-02T18:45:48.816Z,0.60
2023-12-02T18:48:15.989Z,0.50
2023-12-02T18:50:43.060Z,0.40
2023-12-02T18:53:09.963Z,0.40
2023-12-02T18:55:37.029Z,0.30
2023-12-02T18:58:03.970Z,0.20
2023-12-02T19:00:31.221Z,0.20
2023-12-02T19:02:58.270Z,0.20
2023-12-02T19:05:25.412Z,0.20
2023-12-02T19:07:52.448Z,0.10
2023-12-02T19:10:22.239Z,0.10
2023-12-02T19:12:50.187Z,0.10
2023-12-02T19:15:17.800Z,0.10
2023-12-02T19:17:45.504Z,0.00
2023-12-02T19:20:12.869Z,0.00
2023-12-02T19:22:40.158Z,0.00
2023-12-02T19:25:07.953Z,-0.10
2023-12-02T19:27:35.104Z,-0.10
2023-12-02T19:30:03.429Z,-0.10
2023-12-02T19:32:30.644Z,-0.20
2023-12-02T19:34:59.008Z,-0.20
2023-12-02T19:37:26.614Z,-0.20
2023-12-02T19:39:53.610Z,-0.20
2023-12-02T19:42:22.464Z,-0.10
2023-12-02T19:44:49.574Z,-0.10
2023-12-02T19:47:16.594Z,-0.10
2023-12-02T19:49:43.599Z,-0.10
2023-12-02T19:52:10.619Z,-0.10
2023-12-02T19:54:37.645Z,-0.10
2023-12-02T19:57:05.732Z,0.00
2023-12-02T19:59:33.595Z,0.00
2023-12-02T20:02:00.877Z,0.00
2023-12-02T20:04:27.936Z,0.00
2023-12-02T20:06:55.259Z,0.00
2023-12-02T20:09:23.176Z,0.10
2023-12-02T20:11:50.364Z,0.20
2023-12-02T20:14:18.747Z,0.20
2023-12-02T20:16:46.047Z,0.30
2023-12-02T20:19:13.367Z,0.40
2023-12-02T20:21:41.376Z,0.40
2023-12-02T20:24:09.331Z,0.50
2023-12-02T20:26:36.446Z,0.50
2023-12-02T20:29:03.601Z,0.60
2023-12-02T20:31:30.600Z,0.50
2023-12-02T20:33:57.690Z,0.50
2023-12-02T20:36:24.666Z,0.50
2023-12-02T20:38:51.875Z,0.50
2023-12-02T20:41:18.908Z,0.60
2023-12-02T20:43:46.926Z,0.60
2023-12-02T20:46:14.191Z,0.60
2023-12-02T20:48:45.757Z,0.70
2023-12-02T20:51:13.033Z,0.60
2023-12-02T20:53:40.257Z,0.60
2023-12-02T20:56:08.143Z,0.60
2023-12-02T20:58:35.106Z,0.60
2023-12-02T21:01:02.112Z,0.50
2023-12-02T21:03:29.151Z,0.50
2023-12-02T21:05:56.532Z,0.50
2023-12-02T21:08:23.770Z,0.50
2023-12-02T21:10:50.848Z,0.50
2023-12-02T21:13:17.855Z,0.60
2023-12-02T21:15:45.066Z,0.60
2023-12-02T21:18:13.322Z,0.60
2023-12-02T21:20:41.368Z,0.50
2023-12-02T21:23:09.646Z,0.50
2023-12-02T21:25:36.946Z,0.60
2023-12-02T21:28:05.583Z,0.60
2023-12-02T21:30:45.188Z,0.60
2023-12-02T21:33:16.540Z,0.60
2023-12-02T21:35:54.955Z,0.60
2023-12-02T21:38:46.894Z,0.60
2023-12-02T21:41:18.270Z,0.60
2023-12-02T21:43:47.068Z,0.50
2023-12-02T21:46:24.458Z,0.90
2023-12-02T21:49:04.049Z,1.90
2023-12-02T21:51:35.524Z,2.80
2023-12-02T21:54:05.552Z,3.60
2023-12-02T21:56:43.118Z,4.10
2023-12-02T21:59:23.524Z,4.10
2023-12-02T22:01:55.774Z,3.60
2023-12-02T22:04:25.757Z,3.10
2023-12-02T22:06:56.552Z,2.60
2023-12-02T22:09:39.962Z,2.30
2023-12-02T22:12:22.374Z,2.00
2023-12-02T22:14:50.319Z,1.70
2023-12-02T22:17:23.729Z,1.50
2023-12-02T22:19:53.167Z,1.40
2023-12-02T22:23:00.344Z,1.30
2023-12-02T22:25:30.232Z,1.20
2023-12-02T22:28:15.870Z,1.00
2023-12-02T22:30:50.341Z,0.90
2023-12-02T22:33:22.963Z,0.90
2023-12-02T22:36:02.888Z,0.90
2023-12-02T22:38:42.930Z,0.90
2023-12-02T22:41:12.123Z,0.80
2023-12-02T22:43:49.737Z,0.80
2023-12-02T22:46:21.509Z,0.80
2023-12-02T22:48:51.675Z,0.80
2023-12-02T22:51:25.407Z,1.40
2023-12-02T22:53:53.514Z,2.30
2023-12-02T22:56:22.469Z,3.00
2023-12-02T22:58:53.202Z,3.40
2023-12-02T23:01:33.406Z,3.20
2023-12-02T23:04:15.752Z,2.50
2023-12-02T23:06:43.060Z,1.90
2023-12-02T23:09:29.301Z,1.50
2023-12-02T23:11:57.653Z,1.20
2023-12-02T23:15:07.360Z,1.00
2023-12-02T23:17:37.643Z,0.90
2023-12-02T23:20:10.259Z,0.90
2023-12-02T23:22:37.725Z,0.90
2023-12-02T23:25:17.280Z,0.80
2023-12-02T23:27:49.481Z,0.70
2023-12-02T23:30:19.481Z,0.80
2023-12-02T23:32:47.002Z,1.50
2023-12-02T23:35:25.546Z,2.40
2023-12-02T23:37:54.245Z,2.50
2023-12-02T23:40:32.989Z,2.30
2023-12-02T23:43:04.076Z,2.00
2023-12-02T23:45:31.262Z,1.80
2023-12-02T23:47:58.322Z,1.50
2023-12-02T23:50:25.433Z,1.40
2023-12-02T23:52:52.774Z,1.20
2023-12-02T23:55:19.779Z,1.00
2023-12-02T23:57:48.397Z,0.90
